createdAt,value
2022-09-01T00:00:13.663Z,19.60
2022-09-01T00:02:43.477Z,16.30
2022-09-01T00:05:11.119Z,15.35
2022-09-01T00:07:38.646Z,16.38
2022-09-01T00:10:08.976Z,13.30
2022-09-01T00:12:39.168Z,14.57
2022-09-01T00:15:10.186Z,12.77
2022-09-01T00:17:37.854Z,13.60
2022-09-01T00:20:06.923Z,14.75
2022-09-01T00:22:34.340Z,15.23
2022-09-01T00:25:02.363Z,14.00
2022-09-01T00:27:31.211Z,16.85
2022-09-01T00:29:59.699Z,14.90
2022-09-01T00:32:28.020Z,15.25
2022-09-01T00:34:55.636Z,14.23
2022-09-01T00:37:23.141Z,14.65
2022-09-01T00:39:50.657Z,14.95
2022-09-01T00:42:18.141Z,14.52
2022-09-01T00:44:46.282Z,14.63
2022-09-01T00:47:15.208Z,14.88
2022-09-01T00:49:47.497Z,15.88
2022-09-01T00:52:29.831Z,15.07
2022-09-01T00:55:04.298Z,14.10
2022-09-01T00:57:31.826Z,14.73
2022-09-01T01:00:11.956Z,13.63
2022-09-01T01:02:41.117Z,12.52
2022-09-01T01:05:12.634Z,11.05
2022-09-01T01:07:48.021Z,12.07
2022-09-01T01:10:17.996Z,10.98
2022-09-01T01:12:45.658Z,11.57
2022-09-01T01:15:14.487Z,9.75
2022-09-01T01:17:41.973Z,9.35
2022-09-01T01:20:30.303Z,9.00
2022-09-01T01:23:17.053Z,9.57
2022-09-01T01:25:55.530Z,10.80
2022-09-01T01:28:27.326Z,9.18
2022-09-01T01:31:01.877Z,7.32
2022-09-01T01:33:42.727Z,7.18
2022-09-01T01:36:17.563Z,6.90
2022-09-01T01:38:49.041Z,9.15
2022-09-01T01:41:20.096Z,6.90
2022-09-01T01:43:51.327Z,6.20
2022-09-01T01:46:20.705Z,6.70
2022-09-01T01:48:52.603Z,4.47
2022-09-01T01:51:25.359Z,6.38
2022-09-01T01:53:53.761Z,4.70
2022-09-01T01:56:25.870Z,7.07
2022-09-01T01:58:55.700Z,5.18
2022-09-01T02:01:26.188Z,5.97
2022-09-01T02:03:55.061Z,5.13
2022-09-01T02:06:25.379Z,5.55
2022-09-01T02:08:58.355Z,6.07
2022-09-01T02:11:26.683Z,5.80
2022-09-01T02:13:57.678Z,5.65
2022-09-01T02:16:28.270Z,6.00
2022-09-01T02:18:57.223Z,7.45
2022-09-01T02:21:27.342Z,7.68
2022-09-01T02:24:02.322Z,7.95
2022-09-01T02:26:42.492Z,13.18
2022-09-01T02:29:18.225Z,13.00
2022-09-01T02:31:48.505Z,8.32
2022-09-01T02:34:17.371Z,28.45
2022-09-01T02:36:50.579Z,33.83
2022-09-01T02:39:29.314Z,28.30
2022-09-01T02:41:57.447Z,32.00
2022-09-01T02:44:29.469Z,13.82
2022-09-01T02:46:57.982Z,25.00
2022-09-01T02:49:30.121Z,17.73
2022-09-01T02:52:01.977Z,18.02
2022-09-01T02:54:32.038Z,13.45
2022-09-01T02:57:00.083Z,20.30
2022-09-01T02:59:30.139Z,16.98
2022-09-01T03:02:00.389Z,21.55
2022-09-01T03:04:35.163Z,32.65
2022-09-01T03:07:07.455Z,18.70
2022-09-01T03:09:35.750Z,23.63
2022-09-01T03:12:03.887Z,14.73
2022-09-01T03:14:33.004Z,13.90
2022-09-01T03:17:00.994Z,12.25
2022-09-01T03:19:32.138Z,14.00
2022-09-01T03:22:00.417Z,15.32
2022-09-01T03:24:32.483Z,11.88
2022-09-01T03:27:01.367Z,16.73
2022-09-01T03:29:28.938Z,16.98
2022-09-01T03:31:56.653Z,13.13
2022-09-01T03:34:24.420Z,19.58
2022-09-01T03:36:54.659Z,18.08
2022-09-01T03:39:30.005Z,17.83
2022-09-01T03:41:59.161Z,17.75
2022-09-01T03:44:27.704Z,38.65
2022-09-01T03:46:55.796Z,45.25
2022-09-01T03:49:28.028Z,24.45
2022-09-01T03:51:57.664Z,23.38
2022-09-01T03:54:27.583Z,14.45
2022-09-01T03:56:55.386Z,33.22
2022-09-01T03:59:25.804Z,31.58
2022-09-01T04:01:53.744Z,51.38
2022-09-01T04:04:22.229Z,15.75
2022-09-01T04:06:49.952Z,18.95
2022-09-01T04:09:17.775Z,18.30
2022-09-01T04:11:46.550Z,27.38
2022-09-01T04:14:15.872Z,17.75
2022-09-01T04:17:02.950Z,23.17
2022-09-01T04:19:37.227Z,18.50
2022-09-01T04:22:05.879Z,19.40
2022-09-01T04:24:45.085Z,19.17
2022-09-01T04:27:14.218Z,20.15
2022-09-01T04:29:43.035Z,23.52
2022-09-01T04:32:13.369Z,20.05
2022-09-01T04:34:51.239Z,30.80
2022-09-01T04:37:21.602Z,18.30
2022-09-01T04:39:59.605Z,23.98
2022-09-01T04:42:30.112Z,26.50
2022-09-01T04:45:02.146Z,16.33
2022-09-01T04:47:45.722Z,17.60
2022-09-01T04:50:18.218Z,47.83
2022-09-01T04:53:06.477Z,51.50
2022-09-01T04:55:45.416Z,63.60
2022-09-01T04:58:18.099Z,17.08
2022-09-01T05:00:52.470Z,17.73
2022-09-01T05:03:24.790Z,42.42
2022-09-01T05:06:05.995Z,26.75
2022-09-01T05:08:36.372Z,27.17
2022-09-01T05:11:19.060Z,20.67
2022-09-01T05:13:49.628Z,50.72
2022-09-01T05:16:25.204Z,34.10
2022-09-01T05:18:57.321Z,25.70
2022-09-01T05:21:30.027Z,33.75
2022-09-01T05:24:01.664Z,29.75
2022-09-01T05:26:32.328Z,31.48
2022-09-01T05:29:02.712Z,19.08
2022-09-01T05:31:38.277Z,44.08
2022-09-01T05:34:09.959Z,29.15
2022-09-01T05:36:42.481Z,22.60
2022-09-01T05:39:12.482Z,27.70
2022-09-01T05:41:41.662Z,26.05
2022-09-01T05:44:11.486Z,25.75
2022-09-01T05:46:40.185Z,26.98
2022-09-01T05:49:16.417Z,30.55
2022-09-01T05:51:50.505Z,27.70
2022-09-01T05:54:27.579Z,37.83
2022-09-01T05:57:13.092Z,33.47
2022-09-01T05:59:54.243Z,23.65
2022-09-01T06:02:27.582Z,34.72
2022-09-01T06:04:57.598Z,28.15
2022-09-01T06:10:01.220Z,31.95
2022-09-01T06:12:30.959Z,32.70
2022-09-01T06:14:59.351Z,41.85
2022-09-01T06:17:29.185Z,46.30
2022-09-01T06:20:01.203Z,38.85
2022-09-01T06:22:30.979Z,36.47
2022-09-01T06:25:03.235Z,37.92
2022-09-01T06:27:42.903Z,30.83
2022-09-01T06:30:21.326Z,28.85
2022-09-01T06:33:02.250Z,33.05
2022-09-01T06:35:32.675Z,32.58
2022-09-01T06:38:02.195Z,34.13
2022-09-01T06:40:54.618Z,32.65
2022-09-01T06:43:23.530Z,31.90
2022-09-01T06:45:55.035Z,33.40
2022-09-01T06:48:27.202Z,30.02
2022-09-01T06:51:19.969Z,27.70
2022-09-01T06:53:56.914Z,33.80
2022-09-01T06:56:32.282Z,28.85
2022-09-01T06:59:06.329Z,35.00
2022-09-01T07:01:39.240Z,35.55
2022-09-01T07:04:12.917Z,38.13
2022-09-01T07:09:47.578Z,42.40
2022-09-01T07:12:38.303Z,40.35
2022-09-01T07:17:56.793Z,49.72
2022-09-01T07:20:27.818Z,44.85
2022-09-01T07:23:06.471Z,50.90
2022-09-01T07:26:01.526Z,45.50
2022-09-01T07:28:36.393Z,51.55
2022-09-01T07:34:37.629Z,55.90
2022-09-01T07:39:51.524Z,49.85
2022-09-01T07:46:00.550Z,50.83
2022-09-01T07:51:36.824Z,55.33
2022-09-01T07:54:06.192Z,55.00
2022-09-01T07:56:39.777Z,57.03
2022-09-01T07:59:15.092Z,64.05
2022-09-01T08:02:06.208Z,58.42
2022-09-01T08:04:34.854Z,59.80
2022-09-01T08:07:04.522Z,58.03
2022-09-01T08:09:38.239Z,60.45
2022-09-01T08:12:12.559Z,66.45
2022-09-01T08:14:46.926Z,58.33
2022-09-01T08:17:33.108Z,58.53
2022-09-01T08:20:12.979Z,63.42
2022-09-01T08:22:53.594Z,57.25
2022-09-01T08:25:26.539Z,55.60
2022-09-01T08:28:02.688Z,61.72
2022-09-01T08:30:32.790Z,64.55
2022-09-01T08:33:10.848Z,62.33
2022-09-01T08:35:44.720Z,64.38
2022-09-01T08:38:13.156Z,63.42
2022-09-01T08:40:43.476Z,62.53
2022-09-01T08:43:25.289Z,58.85
2022-09-01T08:46:02.826Z,59.78
2022-09-01T08:52:02.868Z,57.38
2022-09-01T08:54:45.518Z,56.38
2022-09-01T08:57:23.263Z,55.53
2022-09-01T09:00:17.041Z,54.25
2022-09-01T09:03:06.170Z,58.00
2022-09-01T09:05:43.742Z,55.80
2022-09-01T09:08:14.239Z,55.83
2022-09-01T09:11:10.968Z,56.75
2022-09-01T09:14:11.628Z,52.67
2022-09-01T09:16:43.346Z,50.25
2022-09-01T09:19:30.658Z,52.28
2022-09-01T09:22:02.017Z,55.28
2022-09-01T09:24:47.636Z,52.63
2022-09-01T09:27:30.201Z,50.47
2022-09-01T09:30:07.309Z,50.78
2022-09-01T09:33:46.708Z,49.75
2022-09-01T09:35:57.862Z,55.20
2022-09-01T09:38:29.534Z,53.25
2022-09-01T09:41:20.312Z,50.17
2022-09-01T09:43:59.146Z,49.30
2022-09-01T09:46:33.058Z,47.63
2022-09-01T09:49:36.717Z,46.70
2022-09-01T09:52:16.466Z,47.00
2022-09-01T09:55:24.485Z,49.58
2022-09-01T09:57:55.597Z,42.95
2022-09-01T10:00:34.508Z,46.45
2022-09-01T10:03:10.868Z,42.47
2022-09-01T10:05:44.401Z,35.50
2022-09-01T10:08:16.520Z,42.58
2022-09-01T10:10:57.470Z,40.53
2022-09-01T10:13:33.024Z,41.60
2022-09-01T10:18:45.340Z,40.38
2022-09-01T10:21:17.659Z,35.00
2022-09-01T10:23:45.203Z,36.45
2022-09-01T10:26:24.515Z,36.53
2022-09-01T10:29:16.942Z,35.95
2022-09-01T10:31:44.524Z,38.08
2022-09-01T10:34:19.507Z,37.15
2022-09-01T10:36:55.781Z,34.15
2022-09-01T10:39:28.327Z,33.53
2022-09-01T10:42:07.703Z,31.50
2022-09-01T10:44:57.765Z,38.17
2022-09-01T10:47:38.223Z,34.65
2022-09-01T10:50:26.266Z,30.48
2022-09-01T10:52:56.409Z,32.47
2022-09-01T10:55:29.454Z,31.63
2022-09-01T11:04:10.013Z,30.02
2022-09-01T11:07:11.673Z,29.73
2022-09-01T11:09:36.555Z,27.98
2022-09-01T11:12:16.696Z,24.70
2022-09-01T11:15:00.407Z,27.23
2022-09-01T11:17:36.655Z,28.42
2022-09-01T11:20:23.446Z,27.00
2022-09-01T11:23:28.029Z,28.67
2022-09-01T11:28:47.775Z,24.90
2022-09-01T11:31:24.681Z,26.08
2022-09-01T11:34:14.861Z,26.17
2022-09-01T11:36:48.302Z,22.10
2022-09-01T11:39:19.046Z,22.73
2022-09-01T11:42:14.977Z,22.30
2022-09-01T11:44:52.095Z,26.33
2022-09-01T11:47:29.806Z,24.00
2022-09-01T11:50:01.230Z,23.58
2022-09-01T11:52:36.607Z,23.17
2022-09-01T11:55:07.293Z,22.05
2022-09-01T11:57:41.074Z,23.52
2022-09-01T12:00:12.319Z,20.05
2022-09-01T12:02:50.171Z,19.83
2022-09-01T12:05:34.014Z,22.15
2022-09-01T12:08:14.616Z,18.52
2022-09-01T12:10:44.649Z,26.17
2022-09-01T12:13:23.498Z,21.33
2022-09-01T12:16:17.367Z,20.85
2022-09-01T12:18:51.750Z,17.75
2022-09-01T12:21:44.265Z,16.02
2022-09-01T12:26:49.843Z,15.93
2022-09-01T12:29:18.302Z,18.35
2022-09-01T12:31:48.895Z,15.70
2022-09-01T12:34:34.767Z,16.55
2022-09-01T12:37:25.645Z,16.83
2022-09-01T12:39:58.268Z,61.85
2022-09-01T12:42:40.973Z,16.67
2022-09-01T12:45:11.276Z,18.25
2022-09-01T12:47:41.139Z,18.40
2022-09-01T12:50:11.967Z,18.48
2022-09-01T12:52:54.399Z,17.08
2022-09-01T12:58:22.645Z,14.63
2022-09-01T13:01:07.170Z,17.48
2022-09-01T13:03:43.854Z,14.98
2022-09-01T13:06:11.713Z,14.32
2022-09-01T13:08:40.109Z,14.05
2022-09-01T13:11:11.278Z,15.70
2022-09-01T13:13:39.123Z,14.82
2022-09-01T13:16:14.198Z,16.00
2022-09-01T13:21:32.463Z,13.68
2022-09-01T13:24:00.286Z,14.88
2022-09-01T13:26:31.611Z,15.55
2022-09-01T13:29:00.225Z,14.13
2022-09-01T13:31:30.341Z,13.32
2022-09-01T13:34:22.269Z,12.85
2022-09-01T13:36:51.052Z,13.48
2022-09-01T13:39:20.586Z,14.07
2022-09-01T13:41:49.643Z,13.73
2022-09-01T13:44:18.825Z,11.98
2022-09-01T13:49:44.031Z,11.65
2022-09-01T13:52:22.191Z,9.43
2022-09-01T13:54:49.595Z,9.50
2022-09-01T13:57:18.151Z,11.02
2022-09-01T13:59:45.671Z,12.05
2022-09-01T14:02:13.286Z,12.18
2022-09-01T14:04:40.791Z,12.07
2022-09-01T14:07:08.348Z,12.23
2022-09-01T14:09:35.855Z,13.00
2022-09-01T14:12:03.599Z,15.07
2022-09-01T14:17:19.203Z,12.48
2022-09-01T14:19:51.294Z,12.02
2022-09-01T14:22:18.862Z,12.13
2022-09-01T14:24:46.373Z,12.88
2022-09-01T14:27:16.171Z,12.18
2022-09-01T14:32:10.182Z,11.88
2022-09-01T14:34:37.822Z,11.15
2022-09-01T14:37:05.845Z,11.65
2022-09-01T14:39:34.129Z,9.48
2022-09-01T14:42:01.639Z,13.55
2022-09-01T14:44:29.165Z,10.95
2022-09-01T14:46:56.644Z,11.02
2022-09-01T14:49:24.228Z,11.00
2022-09-01T14:54:42.734Z,10.95
2022-09-01T14:59:59.952Z,11.02
2022-09-01T15:02:28.986Z,13.15
2022-09-01T15:04:57.360Z,10.95
2022-09-01T15:07:25.070Z,10.30
2022-09-01T15:09:53.028Z,9.77
2022-09-01T15:12:20.872Z,12.00
2022-09-01T15:14:48.511Z,10.43
2022-09-01T15:17:15.967Z,8.77
2022-09-01T15:19:43.624Z,11.57
2022-09-01T15:22:14.713Z,10.77
2022-09-01T15:24:43.361Z,10.77
2022-09-01T15:27:11.740Z,12.40
2022-09-01T15:29:45.912Z,10.73
2022-09-01T15:32:15.249Z,11.75
2022-09-01T15:34:51.306Z,9.73
2022-09-01T15:37:18.797Z,12.02
2022-09-01T15:39:46.205Z,10.48
2022-09-01T15:42:13.673Z,11.23
2022-09-01T15:44:41.198Z,9.90
2022-09-01T15:47:08.636Z,12.35
2022-09-01T15:49:36.653Z,11.43
2022-09-01T15:52:04.262Z,12.98
2022-09-01T15:54:31.901Z,12.15
2022-09-01T15:56:59.411Z,12.10
2022-09-01T15:59:26.941Z,13.80
2022-09-01T16:01:57.870Z,11.18
2022-09-01T16:04:28.005Z,10.40
2022-09-01T16:06:56.937Z,13.77
2022-09-01T16:09:26.130Z,13.93
2022-09-01T16:11:54.361Z,12.45
2022-09-01T16:14:23.843Z,11.77
2022-09-01T16:17:02.533Z,12.75
2022-09-01T16:20:00.210Z,12.43
2022-09-01T16:22:29.622Z,10.43
2022-09-01T16:25:01.574Z,12.27
2022-09-01T16:27:36.038Z,14.43
2022-09-01T16:30:13.390Z,13.80
2022-09-01T16:32:46.470Z,13.15
2022-09-01T16:35:16.703Z,14.35
2022-09-01T16:37:49.869Z,13.00
2022-09-01T16:40:42.924Z,10.85
2022-09-01T16:43:31.920Z,11.30
2022-09-01T16:46:02.027Z,13.25
2022-09-01T16:48:35.512Z,11.75
2022-09-01T16:53:52.755Z,13.57
2022-09-01T16:56:35.036Z,13.57
2022-09-01T16:59:27.285Z,11.70
2022-09-01T17:02:01.843Z,13.60
2022-09-01T17:04:47.734Z,12.55
2022-09-01T17:07:16.947Z,13.68
2022-09-01T17:10:05.294Z,14.43
2022-09-01T17:12:50.768Z,12.48
2022-09-01T17:15:26.775Z,15.40
2022-09-01T17:18:22.501Z,13.75
2022-09-01T17:21:21.335Z,16.20
2022-09-01T17:23:58.131Z,14.45
2022-09-01T17:26:28.752Z,13.55
2022-09-01T17:29:10.552Z,14.13
2022-09-01T17:32:00.138Z,16.73
2022-09-01T17:34:42.692Z,13.30
2022-09-01T17:37:43.231Z,16.30
2022-09-01T17:40:22.057Z,13.93
2022-09-01T17:43:05.366Z,19.42
2022-09-01T17:45:51.455Z,17.73
2022-09-01T17:48:32.182Z,16.48
2022-09-01T17:51:36.191Z,13.35
2022-09-01T17:54:51.997Z,15.43
2022-09-01T17:57:38.458Z,14.40
2022-09-01T18:00:26.019Z,14.25
2022-09-01T18:03:02.612Z,13.27
2022-09-01T18:05:39.463Z,13.57
2022-09-01T18:08:37.898Z,13.50
2022-09-01T18:11:15.249Z,15.15
2022-09-01T18:14:21.202Z,14.15
2022-09-01T18:16:48.633Z,12.15
2022-09-01T18:19:24.659Z,15.38
2022-09-01T18:22:01.777Z,20.20
2022-09-01T18:24:41.172Z,15.93
2022-09-01T18:27:09.503Z,26.17
2022-09-01T18:29:36.994Z,29.88
2022-09-01T18:32:18.146Z,30.85
2022-09-01T18:35:08.591Z,95.28
2022-09-01T18:38:12.352Z,18.33
2022-09-01T18:41:27.599Z,17.75
2022-09-01T18:44:22.971Z,62.33
2022-09-01T18:47:17.439Z,44.35
2022-09-01T18:50:19.343Z,47.72
2022-09-01T18:53:30.186Z,38.25
2022-09-01T18:56:20.313Z,26.70
2022-09-01T18:58:53.587Z,86.65
2022-09-01T19:01:33.053Z,49.50
2022-09-01T19:04:29.238Z,30.38
2022-09-01T19:07:10.875Z,31.48
2022-09-01T19:09:51.249Z,31.70
2022-09-01T19:12:39.850Z,62.15
2022-09-01T19:15:12.225Z,31.70
2022-09-01T19:17:58.631Z,30.58
2022-09-01T19:20:58.114Z,23.33
2022-09-01T19:23:46.648Z,23.05
2022-09-01T19:26:23.096Z,44.42
2022-09-01T19:29:04.896Z,41.22
2022-09-01T19:31:36.947Z,32.90
2022-09-01T19:34:15.284Z,55.72
2022-09-01T19:36:55.540Z,26.33
2022-09-01T19:39:26.973Z,37.13
2022-09-01T19:42:02.542Z,79.95
2022-09-01T19:44:56.045Z,64.68
2022-09-01T19:48:08.266Z,77.07
2022-09-01T19:50:41.342Z,34.05
2022-09-01T19:53:21.382Z,40.63
2022-09-01T19:56:08.041Z,49.65
2022-09-01T19:58:54.808Z,27.23
2022-09-01T20:01:46.717Z,28.60
2022-09-01T20:04:27.757Z,21.00
2022-09-01T20:07:00.557Z,24.77
2022-09-01T20:09:46.599Z,26.40
2022-09-01T20:12:32.628Z,21.70
2022-09-01T20:15:11.432Z,27.85
2022-09-01T20:17:57.327Z,28.50
2022-09-01T20:20:43.712Z,25.48
2022-09-01T20:23:33.028Z,31.48
2022-09-01T20:26:40.066Z,27.65
2022-09-01T20:29:24.732Z,37.20
2022-09-01T20:31:57.619Z,152.18
2022-09-01T20:34:52.176Z,67.15
2022-09-01T20:37:43.571Z,20.77
2022-09-01T20:40:14.054Z,17.13
2022-09-01T20:43:11.485Z,27.67
2022-09-01T20:45:39.446Z,18.15
2022-09-01T20:48:14.662Z,20.55
2022-09-01T20:50:44.951Z,22.00
2022-09-01T20:53:12.430Z,25.42
2022-09-01T20:55:48.407Z,26.58
2022-09-01T20:58:46.301Z,23.48
2022-09-01T21:01:46.644Z,38.33
2022-09-01T21:04:36.130Z,25.65
2022-09-01T21:07:14.138Z,20.92
2022-09-01T21:09:47.404Z,22.17
2022-09-01T21:12:14.878Z,27.58
2022-09-01T21:15:08.739Z,22.55
2022-09-01T21:17:43.748Z,21.55
2022-09-01T21:20:32.953Z,23.25
2022-09-01T21:23:01.448Z,29.45
2022-09-01T21:25:31.187Z,21.00
2022-09-01T21:28:02.505Z,24.58
2022-09-01T21:30:35.725Z,22.83
2022-09-01T21:33:04.731Z,19.77
2022-09-01T21:35:32.431Z,20.60
2022-09-01T21:37:59.870Z,30.00
2022-09-01T21:40:27.556Z,19.05
2022-09-01T21:43:00.525Z,18.92
2022-09-01T21:45:28.316Z,19.08
2022-09-01T21:47:56.276Z,20.92
2022-09-01T21:50:25.643Z,21.10
2022-09-01T21:52:53.164Z,26.33
2022-09-01T21:55:23.494Z,16.27
2022-09-01T21:57:52.106Z,21.75
2022-09-01T22:00:23.354Z,19.08
2022-09-01T22:02:51.207Z,27.55
2022-09-01T22:05:18.858Z,19.95
2022-09-01T22:07:47.977Z,25.00
2022-09-01T22:10:18.629Z,25.30
2022-09-01T22:12:47.739Z,21.77
2022-09-01T22:15:19.136Z,21.90
2022-09-01T22:17:47.839Z,21.55
2022-09-01T22:20:18.824Z,22.67
2022-09-01T22:22:47.267Z,19.20
2022-09-01T22:25:20.935Z,21.73
2022-09-01T22:27:48.360Z,24.35
2022-09-01T22:30:16.954Z,15.43
2022-09-01T22:32:45.616Z,20.90
2022-09-01T22:35:15.095Z,21.88
2022-09-01T22:37:42.724Z,23.42
2022-09-01T22:40:11.756Z,20.35
2022-09-01T22:42:39.235Z,24.25
2022-09-01T22:45:08.796Z,42.67
2022-09-01T22:47:38.496Z,57.83
2022-09-01T22:50:07.827Z,28.55
2022-09-01T22:52:37.287Z,32.08
2022-09-01T22:55:06.507Z,15.93
2022-09-01T22:57:34.593Z,18.75
2022-09-01T23:00:02.130Z,16.35
2022-09-01T23:02:31.615Z,17.02
2022-09-01T23:04:59.075Z,18.65
2022-09-01T23:07:26.589Z,21.48
2022-09-01T23:09:53.998Z,24.00
2022-09-01T23:12:22.179Z,37.30
2022-09-01T23:14:49.977Z,35.58
2022-09-01T23:17:17.458Z,32.35
2022-09-01T23:19:44.976Z,37.92
2022-09-01T23:22:12.442Z,19.85
2022-09-01T23:24:39.917Z,146.88
2022-09-01T23:27:07.455Z,13.88
2022-09-01T23:29:38.127Z,16.70
2022-09-01T23:32:05.831Z,16.95
2022-09-01T23:34:33.438Z,16.75
2022-09-01T23:37:00.899Z,18.23
2022-09-01T23:39:28.393Z,52.90
2022-09-01T23:41:55.905Z,35.85
2022-09-01T23:44:23.895Z,42.20
2022-09-01T23:46:51.352Z,118.97
2022-09-01T23:49:19.688Z,18.75
2022-09-01T23:51:47.953Z,19.98
2022-09-01T23:54:15.996Z,15.90
2022-09-01T23:56:43.508Z,16.23
2022-09-01T23:59:11.015Z,16.92
